Flight Track Log - Related Links

Times and Time Zones

All times are in EDT time to prevent confusion due to time zone crossing. See the ACA553 flight status page for this flight to view local times or setup timezone preferences in your user account.


Time Position Orientation Groundspeed Altitude Reporting Facility
EDT Latitude Longitude Course Direction KTS MPH feet Rate Location/Type
Thu 03:23:45 PM 33.9456 -118.4594 331° Northwest 167 192 1,500  Level Los Angeles Center
Thu 03:24:47 PM 33.9408 -118.5361 266° West 211 243 3,300 2,160 Climbing Los Angeles Center
Thu 03:25:50 PM 33.9347 -118.6258 265° West 267 307 6,000 2,190 Climbing Los Angeles Center
Thu 03:26:00 PM 34.1132 -118.6434 22° Northeast  Level FlightAware Approximate
Thu 03:26:53 PM 33.9894 -118.6894 316° Northwest 284 327 7,900  Level Los Angeles Center
Thu 03:27:00 PM 34.2143 -118.6000 North  Level FlightAware Approximate
Thu 03:27:54 PM 34.0644 -118.6853 North 285 328 9,000  Level Los Angeles Center
Thu 03:28:00 PM 34.3197 -118.6131 331° Northwest  Level FlightAware Approximate
Thu 03:28:56 PM 34.1175 -118.6281 42° Northeast 279 321 11,600  Level Los Angeles Center
Thu 03:30:10 PM 34.1842 -118.5783 32° Northeast 296 341 14,200 2,190 Climbing Los Angeles Center
Thu 03:31:13 PM 34.3092 -118.6294 341° North 347 399 16,600 2,208 Climbing Los Angeles Center
Thu 03:32:15 PM 34.4042 -118.6686 341° North 362 417 18,800 2,032 Climbing Los Angeles Center
Thu 03:33:17 PM 34.5022 -118.7117 340° North 373 429 20,800 1,887 Climbing Los Angeles Center
Thu 03:34:19 PM 34.6017 -118.7583 339° North 384 442 22,700 1,742 Climbing Los Angeles Center
Thu 03:35:21 PM 34.7025 -118.8114 337° Northwest 396 456 24,400 1,500 Climbing Los Angeles Center
Thu 03:36:23 PM 34.8058 -118.8628 338° Northwest 398 458 25,800 1,694 Climbing Los Angeles Center
Thu 03:37:25 PM 34.9261 -118.8878 350° North 410 472 27,900 1,839 Climbing Los Angeles Center
Thu 03:38:27 PM 35.0586 -118.9156 350° North 406 467 29,600 1,306 Climbing Los Angeles Center
Thu 03:39:29 PM 35.1711 -118.9392 350° North 409 471 30,600 1,392 Climbing Los Angeles Center
Thu 03:40:32 PM 35.2856 -118.9633 350° North 416 479 32,500 1,392 Climbing Los Angeles Center
Thu 03:41:34 PM 35.3967 -118.9864 350° North 411 473 33,500 726 Climbing Los Angeles Center
Thu 03:42:36 PM 35.5058 -119.0106 350° North 406 467 34,000 242 Climbing Los Angeles Center
Thu 03:43:38 PM 35.6367 -119.0394 350° North 401 461 34,000 526 Level Los Angeles Center
Thu 03:44:53 PM 35.7653 -119.0664 350° North 398 458 35,200 657 Climbing Oakland Center
Thu 03:45:55 PM 35.8758 -119.0906 350° North 402 463 35,500 390 Climbing Oakland Center
Thu 03:46:56 PM 35.9897 -119.1156 350° North 412 474 36,000 244 Climbing Oakland Center
Thu 03:47:58 PM 36.1036 -119.1414 350° North 416 479 36,000  Level Oakland Center
Thu 03:49:00 PM 36.2214 -119.1667 350° North 426 490 36,000  Level Oakland Center
Thu 03:50:01 PM 36.3636 -119.1967 350° North 434 499 36,000  Level Oakland Center
Thu 03:51:03 PM 36.4808 -119.2256 349° North 435 501 36,000  Level Oakland Center
Thu 03:52:04 PM 36.5983 -119.2486 351° North 430 495 36,000  Level Oakland Center
Thu 03:53:06 PM 36.7164 -119.2753 350° North 432 497 36,000  Level Oakland Center
Thu 03:54:07 PM 36.8339 -119.3036 349° North 434 499 36,000  Level Oakland Center
Thu 03:55:09 PM 36.9508 -119.3289 350° North 428 493 36,000  Level Oakland Center
Thu 03:56:10 PM 37.0678 -119.3558 350° North 428 493 36,000  Level Oakland Center
Thu 03:57:12 PM 37.1842 -119.3831 349° North 426 490 36,000  Level Oakland Center
Thu 03:58:17 PM 37.3242 -119.4142 350° North 426 490 36,000  Level Oakland Center
Thu 03:59:15 PM 37.4406 -119.4392 350° North 426 490 36,000  Level Oakland Center
Thu 04:00:17 PM 37.5567 -119.4369 North 430 495 36,000  Level Oakland Center
Thu 04:01:18 PM 37.6786 -119.4031 12° North 424 488 36,000  Level Oakland Center
Thu 04:02:20 PM 37.7931 -119.3739 11° North 421 484 36,000  Level Oakland Center
Thu 04:03:21 PM 37.9072 -119.3453 11° North 419 482 36,000  Level Oakland Center
Thu 04:04:23 PM 38.0264 -119.3331 North 432 497 36,000  Level Oakland Center
Thu 04:05:24 PM 38.1550 -119.3650 349° North 436 502 36,000  Level Oakland Center
Thu 04:06:26 PM 38.2736 -119.3964 348° North 434 499 36,000  Level Oakland Center
Thu 04:07:27 PM 38.3931 -119.4281 348° North 436 502 36,000  Level Oakland Center
Thu 04:08:29 PM 38.5111 -119.4578 349° North 433 498 36,000  Level Oakland Center
Thu 04:09:30 PM 38.6322 -119.4892 349° North 439 505 36,000  Level Oakland Center
Thu 04:10:32 PM 38.7514 -119.5197 349° North 436 502 36,000 390 Level Oakland Center
Thu 04:11:33 PM 38.8706 -119.5517 348° North 437 503 36,800 976 Climbing Oakland Center
Thu 04:12:35 PM 39.0097 -119.5875 349° North 426 490 38,000 585 Climbing Oakland Center
Thu 04:13:36 PM 39.1250 -119.6175 349° North 422 486 38,000  Level Oakland Center
Thu 04:14:38 PM 39.2419 -119.6483 348° North 423 487 38,000  Level Oakland Center
Thu 04:15:39 PM 39.3606 -119.6797 348° North 430 495 38,000  Level Oakland Center
Thu 04:16:41 PM 39.4781 -119.7103 349° North 428 493 38,000  Level Oakland Center
Thu 04:17:42 PM 39.5967 -119.7422 348° North 430 495 38,000  Level Oakland Center
Thu 04:18:43 PM 39.7136 -119.7733 348° North 429 494 38,000  Level Oakland Center
Thu 04:19:45 PM 39.8300 -119.8053 348° North 427 491 38,000  Level Oakland Center
Thu 04:20:46 PM 39.9489 -119.8369 348° North 432 497 38,000  Level Oakland Center
Thu 04:21:48 PM 40.0653 -119.8675 349° North 428 493 38,000  Level Oakland Center
Thu 04:22:49 PM 40.1811 -119.8992 348° North 425 489 38,000  Level Oakland Center
Thu 04:23:51 PM 40.3236 -119.9372 348° North 437 503 38,000  Level Oakland Center
Thu 04:24:52 PM 40.4400 -119.9681 349° North 428 493 38,000  Level Oakland Center
Thu 04:25:54 PM 40.5506 -119.9997 348° North 429 494 38,000  Level Oakland Center
Thu 04:26:55 PM 40.6656 -120.0339 347° North 426 490 38,000  Level Oakland Center
Thu 04:27:56 PM 40.7833 -120.0644 349° North 429 494 38,000  Level Oakland Center
Thu 04:28:58 PM 40.8994 -120.0975 348° North 432 497 38,000  Level Oakland Center
Thu 04:29:59 PM 41.0169 -120.1272 349° North 430 495 38,000  Level Oakland Center
Thu 04:31:01 PM 41.1525 -120.1686 347° North 422 486 38,000  Level Oakland Center
Thu 04:32:02 PM 41.2678 -120.2003 348° North 422 486 38,000  Level Oakland Center
Thu 04:33:04 PM 41.3831 -120.2317 348° North 424 488 38,000  Level Oakland Center
Thu 04:34:05 PM 41.4978 -120.2653 348° North 424 488 38,000  Level Oakland Center
Thu 04:35:12 PM 41.6136 -120.2956 349° North 424 488 38,000  Level Seattle Center
Thu 04:36:13 PM 41.7511 -120.3356 348° North 425 489 38,000  Level Seattle Center
Thu 04:37:14 PM 41.8669 -120.3672 348° North 427 491 38,000  Level Seattle Center
Thu 04:38:15 PM 41.9819 -120.4003 348° North 424 488 38,000  Level Seattle Center
Thu 04:39:16 PM 42.0967 -120.4333 348° North 423 487 38,000  Level Seattle Center
Thu 04:40:17 PM 42.2125 -120.4661 348° North 425 489 38,000  Level Seattle Center
Thu 04:41:18 PM 42.3267 -120.4992 348° North 423 487 38,000  Level Seattle Center
Thu 04:42:19 PM 42.4425 -120.5314 348° North 425 489 38,000  Level Seattle Center
Thu 04:43:21 PM 42.5581 -120.5658 348° North 426 490 38,000  Level Seattle Center
Thu 04:44:22 PM 42.6722 -120.5986 348° North 423 487 38,000  Level Seattle Center
Thu 04:45:23 PM 42.7872 -120.6322 348° North 422 486 38,000  Level Seattle Center
Thu 04:46:24 PM 42.9258 -120.6733 348° North 426 490 38,000  Level Seattle Center
Thu 04:47:25 PM 43.0417 -120.7061 348° North 426 490 38,000  Level Seattle Center
Thu 04:48:26 PM 43.1561 -120.7411 347° North 424 488 38,000  Level Seattle Center
Thu 04:49:27 PM 43.2708 -120.7739 348° North 423 487 38,000  Level Seattle Center
Thu 04:50:28 PM 43.3867 -120.8058 349° North 424 488 38,000  Level Seattle Center
Thu 04:51:29 PM 43.5017 -120.8417 347° North 425 489 38,000  Level Seattle Center
Thu 04:52:30 PM 43.6214 -120.8758 348° North 424 488 38,000  Level Seattle Center
Thu 04:53:31 PM 43.7375 -120.9103 348° North 424 488 38,000  Level Seattle Center
Thu 04:54:32 PM 43.8533 -120.9472 347° North 425 489 38,000  Level Seattle Center
Thu 04:55:33 PM 43.9683 -120.9806 348° North 422 486 38,000  Level Seattle Center
Thu 04:56:34 PM 44.0842 -121.0167 347° North 425 489 38,000  Level Seattle Center
Thu 04:57:34 PM 44.1992 -121.0514 348° North 424 488 38,000  Level Seattle Center
Thu 04:58:35 PM 44.3189 -121.0897 347° North 435 501 38,000  Level Seattle Center
Thu 04:59:36 PM 44.4544 -121.1303 348° North 427 491 38,000  Level Seattle Center
Thu 05:00:37 PM 44.5683 -121.1667 347° North 423 487 38,000  Level Seattle Center
Thu 05:01:38 PM 44.6636 -121.1961 348° North 423 487 38,000  Level Seattle Center
Thu 05:02:39 PM 44.8022 -121.2386 348° North 424 488 38,000  Level Seattle Center
Thu 05:03:40 PM 44.9172 -121.2747 347° North 423 487 38,000  Level Seattle Center
Thu 05:04:41 PM 45.0322 -121.3119 347° North 423 487 38,000  Level Seattle Center
Thu 05:05:42 PM 45.1475 -121.3489 347° North 425 489 38,000  Level Seattle Center
Thu 05:06:43 PM 45.2622 -121.3844 348° North 423 487 38,000  Level Seattle Center
Thu 05:07:44 PM 45.3767 -121.4228 347° North 423 487 38,000  Level Seattle Center
Thu 05:08:45 PM 45.4908 -121.4583 348° North 420 483 38,000  Level Seattle Center
Thu 05:09:46 PM 45.6056 -121.4956 347° North 422 486 38,000  Level Seattle Center
Thu 05:10:47 PM 45.7194 -121.5325 347° North 419 482 38,000  Level Seattle Center
Thu 05:11:48 PM 45.8333 -121.5694 347° North 420 483 38,000  Level Seattle Center
Thu 05:12:49 PM 45.9478 -121.6069 347° North 421 484 38,000  Level Seattle Center
Thu 05:13:50 PM 46.0653 -121.6444 348° North 430 495 38,000  Level Seattle Center
Thu 05:14:51 PM 46.1808 -121.6842 347° North 428 493 38,000  Level Seattle Center
Thu 05:15:52 PM 46.3147 -121.7278 347° North 428 493 38,000  Level Seattle Center
Thu 05:16:53 PM 46.4286 -121.7672 347° North 426 490 38,000 -246 Level Seattle Center
Thu 05:17:54 PM 46.5442 -121.8047 347° North 431 496 37,500 -738 Descending Seattle Center
Thu 05:18:55 PM 46.6581 -121.8442 347° North 429 494 36,500 -738 Descending Seattle Center
Thu 05:19:56 PM 46.7733 -121.8828 347° North 431 496 36,000 -246 Descending Seattle Center
Thu 05:20:57 PM 46.8892 -121.9208 347° North 432 497 36,000  Level Seattle Center
Thu 05:21:58 PM 47.0039 -121.9600 347° North 430 495 36,000  Level Seattle Center
Thu 05:22:59 PM 47.1381 -122.0061 347° North 419 482 36,000  Level Seattle Center
Thu 05:24:00 PM 47.2489 -122.0439 347° North 416 479 36,000  Level Seattle Center
Thu 05:25:01 PM 47.3600 -122.0825 347° North 416 479 36,000  Level Seattle Center
Thu 05:26:02 PM 47.4708 -122.1206 347° North 416 479 36,000 -246 Level Seattle Center
Thu 05:27:03 PM 47.5808 -122.1583 347° North 415 478 35,500 -1,328 Descending Seattle Center
Thu 05:28:04 PM 47.6906 -122.1947 347° North 417 480 33,300 -2,508 Descending Seattle Center
Thu 05:29:05 PM 47.8258 -122.2444 346° North 428 493 30,400 -2,508 Descending Seattle Center
Thu 05:30:06 PM 47.9394 -122.2844 347° North 427 491 28,200 -2,311 Descending Seattle Center
Thu 05:31:07 PM 48.0544 -122.3169 349° North 429 494 25,700 -2,361 Descending Seattle Center
Thu 05:32:08 PM 48.1642 -122.3486 349° North 414 476 23,400 -2,262 Descending Seattle Center
Thu 05:33:09 PM 48.2736 -122.3808 349° North 410 472 21,100 -2,213 Descending Seattle Center
Thu 05:34:10 PM 48.3803 -122.4108 349° North 398 458 18,900 -2,361 Descending Seattle Center
Thu 05:35:11 PM 48.5050 -122.4475 349° North 388 447 16,300 -2,311 Descending Seattle Center
Thu 05:36:12 PM 48.6042 -122.4772 349° North 379 436 14,200 -2,000 Descending Seattle Center
Thu 05:37:11 PM 48.6833 -122.4833 357° North 330 380 12,300 -1,361 Descending Vancouver Center
Thu 05:38:11 PM 48.7333 -122.5833 307° West 300 345 11,500 -1,200 Descending Vancouver Center
Thu 05:39:11 PM 48.7833 -122.6833 307° West 300 345 9,900 -1,550 Descending Vancouver Center
Thu 05:40:11 PM 48.8333 -122.7833 307° West 290 334 8,400 -950 Descending Vancouver Center
Thu 05:41:11 PM 48.8833 -122.8667 312° West 280 322 8,000 -400 Descending Vancouver Center
Thu 05:42:11 PM 48.9500 -122.9167 334° Northwest 270 311 7,600 -1,200 Descending Vancouver Center
Thu 05:43:11 PM 49.0167 -122.9167 360° North 270 311 5,600 -1,800 Descending Vancouver Center
Thu 05:44:11 PM 49.0833 -122.9000 North 260 299 4,000 -1,400 Descending Vancouver Center
Thu 05:45:11 PM 49.1500 -122.9000 360° North 220 253 2,800 -1,000 Descending Vancouver Center
Thu 05:46:11 PM 49.1667 -122.9833 287° West 190 219 2,000 -800 Descending Vancouver Center

Login

Don't have an account? Register now (free) for customized features, flight alerts, and more!